LFML 211500Z AUTO 21007KT 180V240 CAVOK 33/13 Q1014 TEMPO VRB15G25KT TSRA SCT020 BKN040CB

ElémentsDécodage
LFML Station météo située sur l'aérodrome de MARSEILLE PROVENCE
211500Z émis le 21 du mois à 15h00 UTC
AUTO Bulletin édité par un automate
21007KT vent du 210°, 07 noeuds
180V240 vent de direction variable entre 180° et 240°
CAVOK Ceiling And Visibility OK
- Visibilité de 10 Km ou plus
- Pas de nuage au-dessous de 1500m ou au-dessous de l'altitude minimale du secteur la plus élevée (si>1500m) et absence de CB
- pas de temps présent significatif
33/13 température 33°C, point de rosée 13°C
 soit une humidité relative de 30%
Q1014 la pression au niveau de la mer (QNH) est de 1014 hPa
TEMPO fluctuation temporaire prévue
VRB15G25KT vent de direction variable, moyenne: 15 noeuds, avec rafales à 25 noeuds
TSRA pluie d'orage
SCT020 nuages épars (3/8 à 4/8) à 2000 pieds
BKN040CB nuages morcelés (5/8 à 7/8) à 4000 pieds
 présence de cumulonimbus